VKG1119 LEPA-EKCH
Flight info
| Callsign | VKG1119 |
|---|---|
| Flight time | 2h 45m |
| Altitude | 34000 |
| Route | GALAT N861 OLOXO DCT OKABI DCT TOU DCT ADABI DCT BOKNO UN858 VANAD UN874 BAMES UT191 PODEM UN873 BAZOS/N0447F360 DCT BELDI DCT VEKIN DCT ADUTO/N0444F350 DCT VICOT DCT DOSUR P729 TUDLO |
| Aircraft | A321/M-SDE2E3FGHIJ1RWXYZ/LB2 |
Departure
| Time | 2026-05-07 17:14 |
|---|---|
| Airport | Palma de Mallorca Airport (LEPA) |
Arrival
| Time | 2026-05-07 19:59 |
|---|---|
| Airport | Copenhagen Kastrup Airport (EKCH) |
| Time | Latitude | Longitude | Altitude | Speed | Heading |
|---|---|---|---|---|---|
| 2026-05-07 16:53 | 39.55004 | 2.73729 | 39 ft | 0 kts | 239° |
| 2026-05-07 16:53 | 39.54947 | 2.73771 | 37 ft | 0 kts | 239° |
| 2026-05-07 17:05 | 39.54957 | 2.73793 | 38 ft | 4 kts | 239° |
| 2026-05-07 17:06 | 39.54971 | 2.73823 | 36 ft | 3 kts | 239° |
| 2026-05-07 17:06 | 39.54983 | 2.73847 | 36 ft | 4 kts | 223° |
| 2026-05-07 17:06 | 39.55005 | 2.73863 | 38 ft | 4 kts | 183° |
| 2026-05-07 17:06 | 39.55030 | 2.73857 | 36 ft | 4 kts | 151° |
| 2026-05-07 17:07 | 39.55052 | 2.73840 | 35 ft | 4 kts | 149° |
| 2026-05-07 17:07 | 39.55063 | 2.73832 | 37 ft | 0 kts | 149° |
| 2026-05-07 17:08 | 39.55061 | 2.73833 | 38 ft | 2 kts | 149° |
| 2026-05-07 17:09 | 39.55040 | 2.73850 | 37 ft | 6 kts | 149° |
| 2026-05-07 17:09 | 39.54991 | 2.73888 | 37 ft | 11 kts | 148° |
| 2026-05-07 17:09 | 39.54914 | 2.73948 | 38 ft | 15 kts | 149° |
| 2026-05-07 17:09 | 39.54827 | 2.73994 | 38 ft | 13 kts | 190° |
| 2026-05-07 17:10 | 39.54778 | 2.73943 | 38 ft | 7 kts | 201° |
| 2026-05-07 17:10 | 39.54739 | 2.73960 | 37 ft | 6 kts | 153° |
| 2026-05-07 17:10 | 39.54705 | 2.73949 | 36 ft | 6 kts | 224° |
| 2026-05-07 17:10 | 39.54664 | 2.73863 | 38 ft | 16 kts | 239° |
| 2026-05-07 17:11 | 39.54590 | 2.73706 | 38 ft | 24 kts | 238° |
| 2026-05-07 17:11 | 39.54508 | 2.73532 | 38 ft | 21 kts | 239° |
| 2026-05-07 17:11 | 39.54433 | 2.73375 | 38 ft | 19 kts | 238° |
| 2026-05-07 17:11 | 39.54367 | 2.73236 | 38 ft | 17 kts | 238° |
| 2026-05-07 17:12 | 39.54308 | 2.73112 | 38 ft | 15 kts | 238° |
| 2026-05-07 17:12 | 39.54235 | 2.73056 | 38 ft | 12 kts | 153° |
| 2026-05-07 17:12 | 39.54212 | 2.73152 | 38 ft | 11 kts | 90° |
| 2026-05-07 17:12 | 39.54213 | 2.73249 | 38 ft | 10 kts | 90° |
| 2026-05-07 17:13 | 39.54213 | 2.73338 | 38 ft | 10 kts | 85° |
| 2026-05-07 17:13 | 39.54277 | 2.73488 | 38 ft | 43 kts | 58° |
| 2026-05-07 17:13 | 39.54554 | 2.74072 | 39 ft | 106 kts | 58° |
| 2026-05-07 17:13 | 39.55029 | 2.75074 | 42 ft | 153 kts | 58° |
| 2026-05-07 17:14 | 39.55592 | 2.76314 | 472 ft | 160 kts | 59° |
| 2026-05-07 17:14 | 39.56160 | 2.77559 | 1059 ft | 161 kts | 60° |
| 2026-05-07 17:14 | 39.56735 | 2.78823 | 1641 ft | 164 kts | 62° |
| 2026-05-07 17:14 | 39.57327 | 2.80167 | 1873 ft | 183 kts | 61° |
| 2026-05-07 17:15 | 39.58009 | 2.81665 | 2063 ft | 200 kts | 60° |
| 2026-05-07 17:15 | 39.58717 | 2.83203 | 2454 ft | 204 kts | 60° |
| 2026-05-07 17:15 | 39.59462 | 2.84821 | 2881 ft | 209 kts | 60° |
| 2026-05-07 17:15 | 39.60201 | 2.86429 | 3416 ft | 211 kts | 60° |
| 2026-05-07 17:16 | 39.60953 | 2.88067 | 4066 ft | 212 kts | 60° |
| 2026-05-07 17:16 | 39.61711 | 2.89721 | 4657 ft | 215 kts | 61° |
| 2026-05-07 17:16 | 39.62565 | 2.91323 | 5233 ft | 220 kts | 42° |
| 2026-05-07 17:16 | 39.63973 | 2.92069 | 5871 ft | 227 kts | 3° |
| 2026-05-07 17:17 | 39.65514 | 2.91447 | 6316 ft | 246 kts | 323° |
| 2026-05-07 17:17 | 39.66520 | 2.89648 | 6927 ft | 249 kts | 292° |
| 2026-05-07 17:17 | 39.67059 | 2.87517 | 7554 ft | 249 kts | 285° |
| 2026-05-07 17:17 | 39.67487 | 2.85346 | 8181 ft | 249 kts | 284° |
| 2026-05-07 17:18 | 39.67922 | 2.83172 | 8705 ft | 255 kts | 291° |
| 2026-05-07 17:18 | 39.68857 | 2.81132 | 8938 ft | 273 kts | 307° |
| 2026-05-07 17:18 | 39.70015 | 2.79064 | 9201 ft | 293 kts | 306° |
| 2026-05-07 17:18 | 39.71216 | 2.76878 | 9767 ft | 301 kts | 306° |
| 2026-05-07 17:19 | 39.72451 | 2.74608 | 10158 ft | 318 kts | 304° |
| 2026-05-07 17:19 | 39.73770 | 2.72170 | 10321 ft | 341 kts | 305° |
| 2026-05-07 17:19 | 39.75173 | 2.69581 | 10659 ft | 358 kts | 305° |
| 2026-05-07 17:19 | 39.76610 | 2.66912 | 11243 ft | 362 kts | 305° |
| 2026-05-07 17:20 | 39.78050 | 2.64229 | 11914 ft | 363 kts | 305° |
| 2026-05-07 17:20 | 39.79497 | 2.61531 | 12501 ft | 367 kts | 305° |
| 2026-05-07 17:20 | 39.80967 | 2.58787 | 13045 ft | 371 kts | 304° |
| 2026-05-07 17:20 | 39.82452 | 2.56021 | 13678 ft | 374 kts | 304° |
| 2026-05-07 17:21 | 39.83949 | 2.53242 | 14202 ft | 377 kts | 304° |
| 2026-05-07 17:21 | 39.85465 | 2.50430 | 14693 ft | 382 kts | 304° |
| 2026-05-07 17:21 | 39.86999 | 2.47582 | 15184 ft | 386 kts | 304° |
| 2026-05-07 17:21 | 39.88544 | 2.44707 | 15714 ft | 389 kts | 304° |
| 2026-05-07 17:22 | 39.90099 | 2.41804 | 16233 ft | 392 kts | 303° |
| 2026-05-07 17:22 | 39.91660 | 2.38882 | 16750 ft | 395 kts | 303° |
| 2026-05-07 17:22 | 39.93236 | 2.35926 | 17248 ft | 399 kts | 303° |
| 2026-05-07 17:22 | 39.94825 | 2.32945 | 17726 ft | 402 kts | 303° |
| 2026-05-07 17:23 | 39.96431 | 2.29935 | 18198 ft | 406 kts | 303° |
| 2026-05-07 17:23 | 39.98045 | 2.26908 | 18683 ft | 406 kts | 302° |
| 2026-05-07 17:23 | 39.99112 | 2.24901 | 19029 ft | 406 kts | 302° |
| 2026-05-07 17:23 | 40.01273 | 2.20843 | 19663 ft | 407 kts | 302° |
| 2026-05-07 17:24 | 40.02338 | 2.18843 | 20076 ft | 405 kts | 302° |
| 2026-05-07 17:24 | 40.03946 | 2.15822 | 20568 ft | 406 kts | 302° |
| 2026-05-07 17:24 | 40.05556 | 2.12789 | 20970 ft | 409 kts | 302° |
| 2026-05-07 17:24 | 40.07179 | 2.09725 | 21363 ft | 412 kts | 302° |
| 2026-05-07 17:25 | 40.08816 | 2.06635 | 21733 ft | 415 kts | 302° |
| 2026-05-07 17:25 | 40.10463 | 2.03520 | 22108 ft | 419 kts | 302° |
| 2026-05-07 17:25 | 40.12143 | 2.00389 | 22471 ft | 423 kts | 305° |
| 2026-05-07 17:25 | 40.14151 | 1.97545 | 22833 ft | 429 kts | 316° |
| 2026-05-07 17:26 | 40.16569 | 1.95211 | 23172 ft | 435 kts | 328° |
| 2026-05-07 17:26 | 40.19316 | 1.93504 | 23515 ft | 441 kts | 339° |
| 2026-05-07 17:26 | 40.22293 | 1.92482 | 23806 ft | 445 kts | 349° |
| 2026-05-07 17:26 | 40.25346 | 1.91771 | 24103 ft | 448 kts | 348° |
| 2026-05-07 17:27 | 40.28427 | 1.91055 | 24399 ft | 451 kts | 348° |
| 2026-05-07 17:27 | 40.31525 | 1.90337 | 24677 ft | 455 kts | 347° |
| 2026-05-07 17:27 | 40.34660 | 1.89614 | 24934 ft | 459 kts | 347° |
| 2026-05-07 17:27 | 40.37817 | 1.88885 | 25211 ft | 462 kts | 347° |
| 2026-05-07 17:28 | 40.40988 | 1.88150 | 25484 ft | 465 kts | 347° |
| 2026-05-07 17:28 | 40.44179 | 1.87405 | 25780 ft | 467 kts | 347° |
| 2026-05-07 17:28 | 40.47331 | 1.86666 | 26064 ft | 470 kts | 347° |
| 2026-05-07 17:28 | 40.50581 | 1.85903 | 26349 ft | 472 kts | 347° |
| 2026-05-07 17:29 | 40.53826 | 1.85144 | 26628 ft | 475 kts | 347° |
| 2026-05-07 17:29 | 40.57088 | 1.84383 | 26904 ft | 478 kts | 347° |
| 2026-05-07 17:29 | 40.60372 | 1.83615 | 27176 ft | 480 kts | 347° |
| 2026-05-07 17:29 | 40.63675 | 1.82837 | 27443 ft | 483 kts | 347° |
| 2026-05-07 17:30 | 40.66993 | 1.82053 | 27706 ft | 486 kts | 347° |
| 2026-05-07 17:30 | 40.70331 | 1.81266 | 27961 ft | 488 kts | 347° |
| 2026-05-07 17:30 | 40.73682 | 1.80476 | 28209 ft | 491 kts | 347° |
| 2026-05-07 17:30 | 40.77055 | 1.79681 | 28457 ft | 493 kts | 347° |
| 2026-05-07 17:31 | 40.80438 | 1.78887 | 28693 ft | 496 kts | 347° |
| 2026-05-07 17:31 | 40.83847 | 1.78085 | 28937 ft | 498 kts | 347° |
| 2026-05-07 17:31 | 40.87265 | 1.77278 | 29171 ft | 501 kts | 347° |
| 2026-05-07 17:31 | 40.90703 | 1.76462 | 29421 ft | 503 kts | 346° |
| 2026-05-07 17:32 | 40.94152 | 1.75641 | 29632 ft | 506 kts | 346° |
| 2026-05-07 17:32 | 40.97633 | 1.74812 | 29898 ft | 507 kts | 346° |
| 2026-05-07 17:32 | 41.01108 | 1.73985 | 30202 ft | 507 kts | 346° |
| 2026-05-07 17:32 | 41.04581 | 1.73159 | 30497 ft | 507 kts | 347° |
| 2026-05-07 17:33 | 41.08071 | 1.72412 | 30819 ft | 507 kts | 348° |
| 2026-05-07 17:33 | 41.11577 | 1.71806 | 31145 ft | 507 kts | 350° |
| 2026-05-07 17:33 | 41.15074 | 1.71306 | 31487 ft | 507 kts | 351° |
| 2026-05-07 17:33 | 41.18589 | 1.70851 | 31799 ft | 506 kts | 351° |
| 2026-05-07 17:34 | 41.22063 | 1.70405 | 32124 ft | 505 kts | 350° |
| 2026-05-07 17:34 | 41.25555 | 1.69931 | 32454 ft | 504 kts | 350° |
| 2026-05-07 17:34 | 41.29041 | 1.69422 | 32790 ft | 503 kts | 349° |
| 2026-05-07 17:34 | 41.32518 | 1.68880 | 33104 ft | 502 kts | 348° |
| 2026-05-07 17:35 | 41.35988 | 1.68319 | 33446 ft | 501 kts | 348° |
| 2026-05-07 17:35 | 41.39441 | 1.67755 | 33771 ft | 500 kts | 348° |
| 2026-05-07 17:35 | 41.42907 | 1.67197 | 33946 ft | 500 kts | 348° |
| 2026-05-07 17:35 | 41.46340 | 1.66659 | 33971 ft | 495 kts | 348° |
| 2026-05-07 17:36 | 41.53176 | 1.65604 | 33971 ft | 493 kts | 348° |
| 2026-05-07 17:36 | 41.59951 | 1.64547 | 33966 ft | 493 kts | 348° |
| 2026-05-07 17:37 | 41.66822 | 1.63466 | 33972 ft | 493 kts | 348° |
| 2026-05-07 17:37 | 41.73607 | 1.62399 | 33966 ft | 494 kts | 348° |
| 2026-05-07 17:38 | 41.80475 | 1.61315 | 33974 ft | 493 kts | 348° |
| 2026-05-07 17:38 | 41.87241 | 1.60248 | 33967 ft | 493 kts | 348° |
| 2026-05-07 17:39 | 41.94062 | 1.59174 | 33960 ft | 493 kts | 348° |
| 2026-05-07 17:39 | 42.00880 | 1.58087 | 33971 ft | 493 kts | 348° |
| 2026-05-07 17:40 | 42.07691 | 1.57003 | 33975 ft | 493 kts | 348° |
| 2026-05-07 17:40 | 42.14505 | 1.55925 | 33970 ft | 493 kts | 348° |
| 2026-05-07 17:41 | 42.21312 | 1.54836 | 33976 ft | 492 kts | 348° |
| 2026-05-07 17:41 | 42.28104 | 1.53750 | 33973 ft | 491 kts | 348° |
| 2026-05-07 17:42 | 42.34882 | 1.52665 | 33998 ft | 489 kts | 349° |
| 2026-05-07 17:42 | 42.41558 | 1.51599 | 33955 ft | 476 kts | 349° |
| 2026-05-07 17:43 | 42.48104 | 1.50549 | 33951 ft | 472 kts | 349° |
| 2026-05-07 17:43 | 42.54616 | 1.49496 | 33952 ft | 471 kts | 349° |
| 2026-05-07 17:44 | 42.61129 | 1.48446 | 33967 ft | 471 kts | 349° |
| 2026-05-07 17:44 | 42.67625 | 1.47392 | 33954 ft | 469 kts | 349° |
| 2026-05-07 17:45 | 42.74115 | 1.46346 | 33956 ft | 469 kts | 349° |
| 2026-05-07 17:45 | 42.80554 | 1.45310 | 33951 ft | 469 kts | 349° |
| 2026-05-07 17:46 | 42.87078 | 1.44263 | 33949 ft | 469 kts | 349° |
| 2026-05-07 17:46 | 42.93506 | 1.43228 | 33946 ft | 468 kts | 349° |
| 2026-05-07 17:47 | 42.99974 | 1.42183 | 33943 ft | 468 kts | 349° |
| 2026-05-07 17:47 | 43.06477 | 1.41117 | 33954 ft | 467 kts | 349° |
| 2026-05-07 17:48 | 43.12922 | 1.40066 | 33951 ft | 466 kts | 350° |
| 2026-05-07 17:48 | 43.19311 | 1.39032 | 33944 ft | 465 kts | 349° |
| 2026-05-07 17:49 | 43.25741 | 1.37976 | 33951 ft | 465 kts | 350° |
| 2026-05-07 17:49 | 43.32164 | 1.36922 | 33945 ft | 465 kts | 350° |
| 2026-05-07 17:50 | 43.38586 | 1.35863 | 33942 ft | 464 kts | 350° |
| 2026-05-07 17:50 | 43.45000 | 1.34796 | 33939 ft | 464 kts | 350° |
| 2026-05-07 17:51 | 43.51414 | 1.33740 | 33942 ft | 464 kts | 350° |
| 2026-05-07 17:51 | 43.57823 | 1.32682 | 33937 ft | 464 kts | 350° |
| 2026-05-07 17:52 | 43.64226 | 1.31619 | 33954 ft | 464 kts | 350° |
| 2026-05-07 17:52 | 43.70620 | 1.30475 | 33951 ft | 463 kts | 348° |
| 2026-05-07 17:53 | 43.76945 | 1.28889 | 33948 ft | 461 kts | 345° |
| 2026-05-07 17:53 | 43.83231 | 1.27115 | 33952 ft | 461 kts | 345° |
| 2026-05-07 17:54 | 43.89532 | 1.25407 | 33952 ft | 461 kts | 346° |
| 2026-05-07 17:54 | 43.95844 | 1.23785 | 33953 ft | 461 kts | 346° |
| 2026-05-07 17:55 | 44.02157 | 1.22178 | 33951 ft | 461 kts | 346° |
| 2026-05-07 17:55 | 44.08456 | 1.20547 | 33961 ft | 460 kts | 346° |
| 2026-05-07 17:56 | 44.14744 | 1.18900 | 33960 ft | 459 kts | 346° |
| 2026-05-07 17:56 | 44.21023 | 1.17255 | 33956 ft | 459 kts | 346° |
| 2026-05-07 17:57 | 44.26235 | 1.15886 | 33963 ft | 458 kts | 346° |
| 2026-05-07 17:57 | 44.33559 | 1.13966 | 33978 ft | 458 kts | 346° |
| 2026-05-07 17:58 | 44.39815 | 1.12324 | 33967 ft | 457 kts | 346° |
| 2026-05-07 17:58 | 44.46068 | 1.10681 | 33959 ft | 457 kts | 346° |
| 2026-05-07 17:59 | 44.52323 | 1.09018 | 33951 ft | 457 kts | 346° |
| 2026-05-07 17:59 | 44.58575 | 1.07361 | 33949 ft | 457 kts | 346° |
| 2026-05-07 18:00 | 44.64820 | 1.05701 | 33948 ft | 457 kts | 346° |
| 2026-05-07 18:00 | 44.71070 | 1.04043 | 33941 ft | 457 kts | 346° |
| 2026-05-07 18:01 | 44.77320 | 1.02383 | 33946 ft | 457 kts | 346° |
| 2026-05-07 18:01 | 44.83565 | 1.00712 | 33943 ft | 457 kts | 346° |
| 2026-05-07 18:02 | 44.92932 | 0.98201 | 33938 ft | 457 kts | 346° |
| 2026-05-07 18:03 | 44.99177 | 0.96534 | 33945 ft | 457 kts | 346° |
| 2026-05-07 18:03 | 45.05420 | 0.94849 | 33941 ft | 457 kts | 346° |
| 2026-05-07 18:04 | 45.11660 | 0.93155 | 33935 ft | 457 kts | 346° |
| 2026-05-07 18:04 | 45.17901 | 0.91468 | 33933 ft | 457 kts | 346° |
| 2026-05-07 18:05 | 45.24142 | 0.89778 | 33935 ft | 457 kts | 345° |
| 2026-05-07 18:05 | 45.30386 | 0.88078 | 33933 ft | 457 kts | 345° |
| 2026-05-07 18:06 | 45.36636 | 0.86377 | 33932 ft | 457 kts | 346° |
| 2026-05-07 18:06 | 45.42883 | 0.84673 | 33938 ft | 457 kts | 345° |
| 2026-05-07 18:07 | 45.49088 | 0.82973 | 33940 ft | 457 kts | 345° |
| 2026-05-07 18:07 | 45.55345 | 0.81262 | 33942 ft | 458 kts | 345° |
| 2026-05-07 18:08 | 45.61598 | 0.79544 | 33951 ft | 458 kts | 345° |
| 2026-05-07 18:08 | 45.67855 | 0.77818 | 33962 ft | 458 kts | 345° |
| 2026-05-07 18:09 | 45.74111 | 0.76088 | 33951 ft | 458 kts | 345° |
| 2026-05-07 18:09 | 45.79356 | 0.74640 | 33956 ft | 458 kts | 345° |
| 2026-05-07 18:10 | 45.85616 | 0.72907 | 33952 ft | 458 kts | 345° |
| 2026-05-07 18:10 | 45.91882 | 0.71171 | 33948 ft | 458 kts | 345° |
| 2026-05-07 18:11 | 45.98143 | 0.69428 | 33958 ft | 458 kts | 345° |
| 2026-05-07 18:11 | 46.04403 | 0.67672 | 33958 ft | 459 kts | 345° |
| 2026-05-07 18:12 | 46.10626 | 0.65930 | 33959 ft | 458 kts | 345° |
| 2026-05-07 18:12 | 46.16886 | 0.64180 | 33971 ft | 458 kts | 345° |
| 2026-05-07 18:13 | 46.23149 | 0.62424 | 33971 ft | 458 kts | 345° |
| 2026-05-07 18:13 | 46.29404 | 0.60659 | 33971 ft | 458 kts | 345° |
| 2026-05-07 18:14 | 46.35652 | 0.58889 | 33972 ft | 458 kts | 345° |
| 2026-05-07 18:14 | 46.41905 | 0.57116 | 33989 ft | 458 kts | 345° |
| 2026-05-07 18:15 | 46.48155 | 0.55338 | 33977 ft | 458 kts | 345° |
| 2026-05-07 18:15 | 46.54439 | 0.53795 | 33972 ft | 461 kts | 353° |
| 2026-05-07 18:16 | 46.60856 | 0.54620 | 33986 ft | 468 kts | 11° |
| 2026-05-07 18:16 | 46.67199 | 0.56744 | 33981 ft | 467 kts | 10° |
| 2026-05-07 18:17 | 46.73543 | 0.58831 | 33968 ft | 468 kts | 10° |
| 2026-05-07 18:17 | 46.79893 | 0.60916 | 33967 ft | 468 kts | 10° |
| 2026-05-07 18:18 | 46.86243 | 0.63016 | 33974 ft | 468 kts | 10° |
| 2026-05-07 18:18 | 46.92597 | 0.65132 | 33980 ft | 468 kts | 10° |
| 2026-05-07 18:19 | 46.98945 | 0.67251 | 33996 ft | 468 kts | 10° |
| 2026-05-07 18:19 | 47.05312 | 0.69199 | 33981 ft | 466 kts | 3° |
| 2026-05-07 18:20 | 47.11759 | 0.69903 | 34000 ft | 464 kts | 0° |
| 2026-05-07 18:20 | 47.18204 | 0.70558 | 34010 ft | 465 kts | 0° |
| 2026-05-07 18:21 | 47.24652 | 0.71229 | 34007 ft | 464 kts | 0° |
| 2026-05-07 18:21 | 47.31094 | 0.71913 | 34010 ft | 464 kts | 0° |
| 2026-05-07 18:22 | 47.37527 | 0.72595 | 34009 ft | 463 kts | 0° |
| 2026-05-07 18:22 | 47.43950 | 0.73280 | 34014 ft | 463 kts | 0° |
| 2026-05-07 18:23 | 47.50347 | 0.74364 | 34013 ft | 466 kts | 11° |
| 2026-05-07 18:23 | 47.56542 | 0.77282 | 34010 ft | 468 kts | 16° |
| 2026-05-07 18:24 | 47.62716 | 0.80340 | 34013 ft | 468 kts | 16° |
| 2026-05-07 18:24 | 47.68892 | 0.83379 | 34011 ft | 467 kts | 16° |
| 2026-05-07 18:25 | 47.75021 | 0.86406 | 34006 ft | 467 kts | 15° |
| 2026-05-07 18:25 | 47.81184 | 0.89458 | 34035 ft | 466 kts | 16° |
| 2026-05-07 18:26 | 47.87331 | 0.92521 | 34025 ft | 465 kts | 16° |
| 2026-05-07 18:26 | 47.93450 | 0.95629 | 34019 ft | 464 kts | 16° |
| 2026-05-07 18:27 | 47.99563 | 0.98732 | 34013 ft | 464 kts | 16° |
| 2026-05-07 18:27 | 48.05670 | 1.01834 | 34024 ft | 463 kts | 16° |
| 2026-05-07 18:28 | 48.11764 | 1.04934 | 34019 ft | 462 kts | 16° |
| 2026-05-07 18:28 | 48.17849 | 1.08033 | 34019 ft | 462 kts | 16° |
| 2026-05-07 18:29 | 48.23932 | 1.11145 | 34024 ft | 462 kts | 17° |
| 2026-05-07 18:29 | 48.30007 | 1.14244 | 34025 ft | 461 kts | 17° |
| 2026-05-07 18:30 | 48.36079 | 1.17330 | 34031 ft | 460 kts | 17° |
| 2026-05-07 18:30 | 48.42133 | 1.20422 | 34028 ft | 460 kts | 17° |
| 2026-05-07 18:31 | 48.48178 | 1.23536 | 34039 ft | 459 kts | 17° |
| 2026-05-07 18:31 | 48.54216 | 1.26648 | 34035 ft | 458 kts | 17° |
| 2026-05-07 18:32 | 48.60250 | 1.29733 | 34033 ft | 458 kts | 16° |
| 2026-05-07 18:32 | 48.66290 | 1.32757 | 34043 ft | 457 kts | 16° |
| 2026-05-07 18:33 | 48.72315 | 1.35779 | 34044 ft | 456 kts | 17° |
| 2026-05-07 18:33 | 48.78331 | 1.38824 | 34043 ft | 455 kts | 17° |
| 2026-05-07 18:34 | 48.84338 | 1.41885 | 34044 ft | 455 kts | 17° |
| 2026-05-07 18:34 | 48.90300 | 1.44924 | 34043 ft | 455 kts | 17° |
| 2026-05-07 18:35 | 48.96309 | 1.47975 | 34039 ft | 455 kts | 14° |
| 2026-05-07 18:35 | 49.02528 | 1.49786 | 34037 ft | 452 kts | 6° |
| 2026-05-07 18:36 | 49.08743 | 1.51214 | 34054 ft | 452 kts | 6° |
| 2026-05-07 18:36 | 49.14953 | 1.52662 | 34048 ft | 451 kts | 6° |
| 2026-05-07 18:37 | 49.21159 | 1.54176 | 34039 ft | 452 kts | 10° |
| 2026-05-07 18:37 | 49.27021 | 1.57661 | 34042 ft | 456 kts | 30° |
| 2026-05-07 18:38 | 49.31946 | 1.63770 | 34043 ft | 457 kts | 43° |
| 2026-05-07 18:38 | 49.36543 | 1.70506 | 34038 ft | 457 kts | 43° |
| 2026-05-07 18:39 | 49.41148 | 1.77237 | 34034 ft | 457 kts | 43° |
| 2026-05-07 18:39 | 49.45745 | 1.83991 | 34036 ft | 457 kts | 43° |
| 2026-05-07 18:40 | 49.50339 | 1.90755 | 34041 ft | 457 kts | 43° |
| 2026-05-07 18:40 | 49.54923 | 1.97526 | 34055 ft | 457 kts | 43° |
| 2026-05-07 18:41 | 49.59502 | 2.04309 | 34055 ft | 457 kts | 43° |
| 2026-05-07 18:41 | 49.64077 | 2.11111 | 34057 ft | 457 kts | 43° |
| 2026-05-07 18:42 | 49.68648 | 2.17926 | 34059 ft | 457 kts | 43° |
| 2026-05-07 18:42 | 49.73214 | 2.24747 | 34072 ft | 457 kts | 43° |
| 2026-05-07 18:43 | 49.77777 | 2.31589 | 34063 ft | 457 kts | 43° |
| 2026-05-07 18:43 | 49.82331 | 2.38441 | 34060 ft | 457 kts | 43° |
| 2026-05-07 18:44 | 49.86886 | 2.45309 | 34062 ft | 457 kts | 43° |
| 2026-05-07 18:44 | 49.91436 | 2.52195 | 34064 ft | 457 kts | 43° |
| 2026-05-07 18:45 | 49.95978 | 2.59098 | 34065 ft | 457 kts | 43° |
| 2026-05-07 18:45 | 50.00525 | 2.66004 | 34063 ft | 457 kts | 43° |
| 2026-05-07 18:46 | 50.05103 | 2.72845 | 34060 ft | 455 kts | 36° |
| 2026-05-07 18:46 | 50.10475 | 2.77964 | 34063 ft | 453 kts | 28° |
| 2026-05-07 18:47 | 50.15905 | 2.82806 | 34074 ft | 453 kts | 28° |
| 2026-05-07 18:47 | 50.21407 | 2.87728 | 34087 ft | 453 kts | 28° |
| 2026-05-07 18:48 | 50.26869 | 2.92630 | 34080 ft | 453 kts | 28° |
| 2026-05-07 18:48 | 50.32324 | 2.97541 | 34072 ft | 453 kts | 28° |
| 2026-05-07 18:49 | 50.37781 | 3.02467 | 34068 ft | 453 kts | 28° |
| 2026-05-07 18:49 | 50.42859 | 3.08303 | 34065 ft | 455 kts | 38° |
| 2026-05-07 18:50 | 50.47679 | 3.14749 | 34060 ft | 455 kts | 39° |
| 2026-05-07 18:50 | 50.52498 | 3.21209 | 34059 ft | 456 kts | 39° |
| 2026-05-07 18:51 | 50.57323 | 3.27675 | 34057 ft | 456 kts | 38° |
| 2026-05-07 18:51 | 50.61364 | 3.33100 | 34079 ft | 456 kts | 38° |
| 2026-05-07 18:52 | 50.66180 | 3.39595 | 34097 ft | 456 kts | 38° |
| 2026-05-07 18:52 | 50.70992 | 3.46098 | 34088 ft | 455 kts | 38° |
| 2026-05-07 18:53 | 50.75789 | 3.52623 | 34087 ft | 455 kts | 39° |
| 2026-05-07 18:53 | 50.80586 | 3.59156 | 34085 ft | 455 kts | 39° |
| 2026-05-07 18:54 | 50.85382 | 3.65688 | 34091 ft | 455 kts | 39° |
| 2026-05-07 18:54 | 50.90175 | 3.72244 | 34088 ft | 455 kts | 39° |
| 2026-05-07 18:55 | 50.94954 | 3.78816 | 34083 ft | 455 kts | 39° |
| 2026-05-07 18:55 | 50.99739 | 3.85395 | 34092 ft | 455 kts | 39° |
| 2026-05-07 18:56 | 51.04515 | 3.91977 | 34088 ft | 454 kts | 39° |
| 2026-05-07 18:56 | 51.09275 | 3.98584 | 34084 ft | 454 kts | 39° |
| 2026-05-07 18:57 | 51.14036 | 4.05191 | 34084 ft | 454 kts | 39° |
| 2026-05-07 18:57 | 51.18801 | 4.11806 | 34081 ft | 454 kts | 39° |
| 2026-05-07 18:58 | 51.23557 | 4.18436 | 34079 ft | 454 kts | 39° |
| 2026-05-07 18:58 | 51.28306 | 4.25079 | 34085 ft | 454 kts | 40° |
| 2026-05-07 18:59 | 51.33050 | 4.31746 | 34085 ft | 454 kts | 40° |
| 2026-05-07 18:59 | 51.37762 | 4.38383 | 34082 ft | 454 kts | 40° |
| 2026-05-07 19:00 | 51.42502 | 4.45063 | 34081 ft | 454 kts | 40° |
| 2026-05-07 19:00 | 51.47239 | 4.51760 | 34080 ft | 454 kts | 40° |
| 2026-05-07 19:01 | 51.51996 | 4.58518 | 34098 ft | 454 kts | 40° |
| 2026-05-07 19:01 | 51.56725 | 4.65254 | 34097 ft | 454 kts | 40° |
| 2026-05-07 19:02 | 51.61445 | 4.71996 | 34093 ft | 454 kts | 40° |
| 2026-05-07 19:02 | 51.66153 | 4.78745 | 34089 ft | 453 kts | 40° |
| 2026-05-07 19:03 | 51.70857 | 4.85512 | 34082 ft | 453 kts | 41° |
| 2026-05-07 19:03 | 51.75555 | 4.92293 | 34089 ft | 453 kts | 41° |
| 2026-05-07 19:04 | 51.80256 | 4.99073 | 34095 ft | 453 kts | 41° |
| 2026-05-07 19:04 | 51.84950 | 5.05857 | 34095 ft | 453 kts | 41° |
| 2026-05-07 19:05 | 51.89639 | 5.12670 | 34096 ft | 453 kts | 41° |
| 2026-05-07 19:05 | 51.94321 | 5.19502 | 34103 ft | 453 kts | 41° |
| 2026-05-07 19:06 | 51.98998 | 5.26343 | 34100 ft | 453 kts | 41° |
| 2026-05-07 19:06 | 52.06011 | 5.36619 | 34097 ft | 453 kts | 41° |
| 2026-05-07 19:07 | 52.10680 | 5.43490 | 34093 ft | 453 kts | 41° |
| 2026-05-07 19:07 | 52.15345 | 5.50374 | 34094 ft | 452 kts | 42° |
| 2026-05-07 19:08 | 52.19997 | 5.57266 | 34099 ft | 452 kts | 42° |
| 2026-05-07 19:08 | 52.24616 | 5.64130 | 34293 ft | 453 kts | 42° |
| 2026-05-07 19:09 | 52.26943 | 5.67593 | 34530 ft | 453 kts | 42° |
| 2026-05-07 19:09 | 52.29272 | 5.71067 | 34765 ft | 454 kts | 42° |
| 2026-05-07 19:09 | 52.31598 | 5.74548 | 34995 ft | 454 kts | 42° |
| 2026-05-07 19:09 | 52.33934 | 5.78046 | 35067 ft | 456 kts | 42° |
| 2026-05-07 19:10 | 52.38607 | 5.85053 | 35096 ft | 455 kts | 42° |
| 2026-05-07 19:10 | 52.43304 | 5.92109 | 35097 ft | 455 kts | 42° |
| 2026-05-07 19:11 | 52.47962 | 5.99118 | 35092 ft | 454 kts | 42° |
| 2026-05-07 19:11 | 52.52577 | 6.06094 | 35100 ft | 454 kts | 43° |
| 2026-05-07 19:12 | 52.57210 | 6.13143 | 35101 ft | 454 kts | 43° |
| 2026-05-07 19:12 | 52.61836 | 6.20195 | 35110 ft | 453 kts | 43° |
| 2026-05-07 19:13 | 52.66464 | 6.27254 | 35115 ft | 453 kts | 43° |
| 2026-05-07 19:13 | 52.71079 | 6.34309 | 35121 ft | 453 kts | 43° |
| 2026-05-07 19:14 | 52.75688 | 6.41378 | 35120 ft | 452 kts | 43° |
| 2026-05-07 19:14 | 52.80289 | 6.48489 | 35105 ft | 453 kts | 43° |
| 2026-05-07 19:15 | 52.84930 | 6.55648 | 35123 ft | 453 kts | 43° |
| 2026-05-07 19:15 | 52.89493 | 6.62704 | 35129 ft | 451 kts | 43° |
| 2026-05-07 19:16 | 52.94094 | 6.69866 | 35129 ft | 450 kts | 43° |
| 2026-05-07 19:16 | 52.98649 | 6.76978 | 35127 ft | 450 kts | 43° |
| 2026-05-07 19:17 | 53.03205 | 6.84096 | 35123 ft | 449 kts | 43° |
| 2026-05-07 19:17 | 53.07750 | 6.91215 | 35127 ft | 449 kts | 44° |
| 2026-05-07 19:18 | 53.12282 | 6.98338 | 35128 ft | 448 kts | 44° |
| 2026-05-07 19:18 | 53.16807 | 7.05478 | 35125 ft | 448 kts | 44° |
| 2026-05-07 19:19 | 53.21320 | 7.12631 | 35119 ft | 447 kts | 44° |
| 2026-05-07 19:19 | 53.25823 | 7.19794 | 35110 ft | 447 kts | 44° |
| 2026-05-07 19:20 | 53.30320 | 7.26963 | 35105 ft | 447 kts | 44° |
| 2026-05-07 19:20 | 53.34823 | 7.34153 | 35109 ft | 447 kts | 44° |
| 2026-05-07 19:21 | 53.39323 | 7.41346 | 35115 ft | 447 kts | 44° |
| 2026-05-07 19:21 | 53.43786 | 7.48520 | 35125 ft | 447 kts | 44° |
| 2026-05-07 19:22 | 53.48300 | 7.55797 | 35110 ft | 447 kts | 44° |
| 2026-05-07 19:22 | 53.52748 | 7.62993 | 35124 ft | 446 kts | 45° |
| 2026-05-07 19:23 | 53.57203 | 7.70228 | 35132 ft | 444 kts | 45° |
| 2026-05-07 19:23 | 53.61667 | 7.77493 | 35131 ft | 443 kts | 45° |
| 2026-05-07 19:24 | 53.66091 | 7.84699 | 35123 ft | 442 kts | 45° |
| 2026-05-07 19:24 | 53.70476 | 7.91879 | 35120 ft | 442 kts | 45° |
| 2026-05-07 19:25 | 53.74912 | 7.99174 | 35129 ft | 441 kts | 46° |
| 2026-05-07 19:25 | 53.79264 | 8.06345 | 35149 ft | 438 kts | 45° |
| 2026-05-07 19:26 | 53.83616 | 8.13526 | 35144 ft | 436 kts | 46° |
| 2026-05-07 19:26 | 53.87942 | 8.20696 | 35142 ft | 435 kts | 46° |
| 2026-05-07 19:27 | 53.92017 | 8.27483 | 35139 ft | 434 kts | 46° |
| 2026-05-07 19:27 | 53.96318 | 8.34657 | 35139 ft | 433 kts | 46° |
| 2026-05-07 19:28 | 54.00611 | 8.41820 | 35142 ft | 432 kts | 46° |
| 2026-05-07 19:28 | 54.04888 | 8.48993 | 35137 ft | 431 kts | 46° |
| 2026-05-07 19:29 | 54.09150 | 8.56175 | 35134 ft | 431 kts | 46° |
| 2026-05-07 19:29 | 54.13403 | 8.63371 | 35133 ft | 431 kts | 46° |
| 2026-05-07 19:30 | 54.17664 | 8.70574 | 35128 ft | 431 kts | 46° |
| 2026-05-07 19:30 | 54.21912 | 8.77785 | 35139 ft | 430 kts | 46° |
| 2026-05-07 19:31 | 54.26147 | 8.85002 | 35142 ft | 429 kts | 46° |
| 2026-05-07 19:31 | 54.30374 | 8.92215 | 35144 ft | 429 kts | 46° |
| 2026-05-07 19:32 | 54.33879 | 8.98224 | 35139 ft | 429 kts | 46° |
| 2026-05-07 19:32 | 54.38089 | 9.05466 | 35139 ft | 428 kts | 46° |
| 2026-05-07 19:33 | 54.42291 | 9.12716 | 35137 ft | 428 kts | 46° |
| 2026-05-07 19:33 | 54.46489 | 9.19976 | 35136 ft | 428 kts | 46° |
| 2026-05-07 19:34 | 54.50685 | 9.27266 | 35128 ft | 429 kts | 46° |
| 2026-05-07 19:34 | 54.54893 | 9.34546 | 35137 ft | 428 kts | 46° |
| 2026-05-07 19:35 | 54.59086 | 9.41852 | 35143 ft | 428 kts | 46° |
| 2026-05-07 19:35 | 54.63263 | 9.49165 | 35146 ft | 428 kts | 46° |
| 2026-05-07 19:36 | 54.67438 | 9.56500 | 35138 ft | 428 kts | 46° |
| 2026-05-07 19:36 | 54.71611 | 9.63859 | 35136 ft | 429 kts | 46° |
| 2026-05-07 19:37 | 54.75782 | 9.71233 | 35135 ft | 429 kts | 46° |
| 2026-05-07 19:37 | 54.79969 | 9.78664 | 35128 ft | 432 kts | 46° |
| 2026-05-07 19:38 | 54.84163 | 9.86134 | 35134 ft | 433 kts | 46° |
| 2026-05-07 19:38 | 54.88384 | 9.93668 | 34052 ft | 442 kts | 46° |
| 2026-05-07 19:39 | 54.90543 | 9.97522 | 33060 ft | 446 kts | 46° |
| 2026-05-07 19:39 | 54.92704 | 10.01382 | 32319 ft | 445 kts | 46° |
| 2026-05-07 19:39 | 54.94860 | 10.05243 | 31668 ft | 443 kts | 46° |
| 2026-05-07 19:39 | 54.96984 | 10.09111 | 31122 ft | 439 kts | 50° |
| 2026-05-07 19:40 | 54.98665 | 10.13458 | 30860 ft | 428 kts | 64° |
| 2026-05-07 19:40 | 54.99760 | 10.18200 | 30591 ft | 418 kts | 69° |
| 2026-05-07 19:40 | 55.00764 | 10.22911 | 30307 ft | 412 kts | 69° |
| 2026-05-07 19:40 | 55.01756 | 10.27589 | 30029 ft | 411 kts | 69° |
| 2026-05-07 19:41 | 55.02741 | 10.32254 | 29735 ft | 409 kts | 70° |
| 2026-05-07 19:41 | 55.03717 | 10.36905 | 29454 ft | 408 kts | 70° |
| 2026-05-07 19:41 | 55.04689 | 10.41542 | 29171 ft | 406 kts | 70° |
| 2026-05-07 19:41 | 55.05654 | 10.46162 | 28893 ft | 405 kts | 70° |
| 2026-05-07 19:42 | 55.06617 | 10.50787 | 27991 ft | 411 kts | 70° |
| 2026-05-07 19:42 | 55.07606 | 10.55543 | 26835 ft | 423 kts | 70° |
| 2026-05-07 19:42 | 55.08620 | 10.60427 | 25705 ft | 433 kts | 70° |
| 2026-05-07 19:42 | 55.09649 | 10.65397 | 24904 ft | 435 kts | 70° |
| 2026-05-07 19:43 | 55.10677 | 10.70362 | 24244 ft | 433 kts | 70° |
| 2026-05-07 19:43 | 55.11699 | 10.75298 | 23605 ft | 431 kts | 70° |
| 2026-05-07 19:43 | 55.12712 | 10.80208 | 22906 ft | 428 kts | 70° |
| 2026-05-07 19:43 | 55.13716 | 10.85100 | 22081 ft | 428 kts | 70° |
| 2026-05-07 19:44 | 55.14714 | 10.89986 | 21383 ft | 425 kts | 70° |
| 2026-05-07 19:44 | 55.15700 | 10.94838 | 20729 ft | 422 kts | 70° |
| 2026-05-07 19:44 | 55.16677 | 10.99647 | 20087 ft | 418 kts | 70° |
| 2026-05-07 19:44 | 55.17632 | 11.04358 | 19468 ft | 415 kts | 70° |
| 2026-05-07 19:45 | 55.18593 | 11.09096 | 18860 ft | 412 kts | 70° |
| 2026-05-07 19:45 | 55.19546 | 11.13797 | 18242 ft | 408 kts | 70° |
| 2026-05-07 19:45 | 55.20491 | 11.18468 | 17593 ft | 405 kts | 70° |
| 2026-05-07 19:45 | 55.21419 | 11.23065 | 17226 ft | 394 kts | 70° |
| 2026-05-07 19:46 | 55.22310 | 11.27491 | 17077 ft | 374 kts | 70° |
| 2026-05-07 19:46 | 55.23143 | 11.31650 | 16885 ft | 353 kts | 70° |
| 2026-05-07 19:46 | 55.23940 | 11.35647 | 16347 ft | 343 kts | 70° |
| 2026-05-07 19:46 | 55.24722 | 11.39565 | 15743 ft | 338 kts | 70° |
| 2026-05-07 19:47 | 55.25492 | 11.43433 | 15122 ft | 335 kts | 70° |
| 2026-05-07 19:47 | 55.26255 | 11.47269 | 14566 ft | 331 kts | 70° |
| 2026-05-07 19:47 | 55.27008 | 11.51062 | 13969 ft | 327 kts | 70° |
| 2026-05-07 19:47 | 55.27751 | 11.54810 | 13312 ft | 323 kts | 71° |
| 2026-05-07 19:48 | 55.28481 | 11.58511 | 12668 ft | 319 kts | 71° |
| 2026-05-07 19:48 | 55.29203 | 11.62169 | 12365 ft | 311 kts | 71° |
| 2026-05-07 19:48 | 55.29893 | 11.65662 | 12189 ft | 298 kts | 71° |
| 2026-05-07 19:48 | 55.30560 | 11.69047 | 11772 ft | 291 kts | 71° |
| 2026-05-07 19:49 | 55.31214 | 11.72377 | 11237 ft | 287 kts | 71° |
| 2026-05-07 19:49 | 55.31861 | 11.75676 | 10709 ft | 284 kts | 71° |
| 2026-05-07 19:49 | 55.32499 | 11.78932 | 10183 ft | 281 kts | 71° |
| 2026-05-07 19:49 | 55.33131 | 11.82172 | 9711 ft | 280 kts | 71° |
| 2026-05-07 19:50 | 55.33757 | 11.85384 | 9330 ft | 276 kts | 71° |
| 2026-05-07 19:50 | 55.34375 | 11.88563 | 8746 ft | 274 kts | 71° |
| 2026-05-07 19:50 | 55.34988 | 11.91717 | 8166 ft | 272 kts | 71° |
| 2026-05-07 19:50 | 55.35598 | 11.94871 | 7612 ft | 274 kts | 71° |
| 2026-05-07 19:51 | 55.36214 | 11.98048 | 7165 ft | 275 kts | 70° |
| 2026-05-07 19:51 | 55.36820 | 12.01185 | 6948 ft | 266 kts | 70° |
| 2026-05-07 19:51 | 55.37402 | 12.04203 | 6827 ft | 255 kts | 70° |
| 2026-05-07 19:51 | 55.37959 | 12.07090 | 6730 ft | 241 kts | 70° |
| 2026-05-07 19:52 | 55.38484 | 12.09813 | 6414 ft | 232 kts | 70° |
| 2026-05-07 19:52 | 55.38997 | 12.12482 | 5877 ft | 231 kts | 70° |
| 2026-05-07 19:52 | 55.39512 | 12.15163 | 5467 ft | 231 kts | 70° |
| 2026-05-07 19:52 | 55.40022 | 12.17832 | 5335 ft | 231 kts | 70° |
| 2026-05-07 19:53 | 55.40532 | 12.20515 | 5159 ft | 231 kts | 70° |
| 2026-05-07 19:53 | 55.41042 | 12.23197 | 4989 ft | 231 kts | 70° |
| 2026-05-07 19:53 | 55.41551 | 12.25867 | 4809 ft | 229 kts | 70° |
| 2026-05-07 19:53 | 55.42048 | 12.28472 | 4670 ft | 221 kts | 70° |
| 2026-05-07 19:54 | 55.42532 | 12.31022 | 4535 ft | 219 kts | 69° |
| 2026-05-07 19:54 | 55.43013 | 12.33552 | 4350 ft | 218 kts | 69° |
| 2026-05-07 19:54 | 55.43634 | 12.35956 | 4160 ft | 216 kts | 53° |
| 2026-05-07 19:54 | 55.44620 | 12.37892 | 3903 ft | 208 kts | 41° |
| 2026-05-07 19:55 | 55.45663 | 12.39533 | 3618 ft | 195 kts | 39° |
| 2026-05-07 19:55 | 55.46664 | 12.41063 | 3352 ft | 185 kts | 39° |
| 2026-05-07 19:55 | 55.47618 | 12.42521 | 3111 ft | 180 kts | 39° |
| 2026-05-07 19:55 | 55.48568 | 12.43973 | 2863 ft | 180 kts | 39° |
| 2026-05-07 19:56 | 55.49514 | 12.45423 | 2615 ft | 180 kts | 39° |
| 2026-05-07 19:56 | 55.50450 | 12.46858 | 2369 ft | 175 kts | 39° |
| 2026-05-07 19:56 | 55.51346 | 12.48233 | 2155 ft | 164 kts | 39° |
| 2026-05-07 19:56 | 55.52201 | 12.49546 | 1918 ft | 161 kts | 40° |
| 2026-05-07 19:57 | 55.53042 | 12.50839 | 1694 ft | 160 kts | 39° |
| 2026-05-07 19:57 | 55.53861 | 12.52098 | 1474 ft | 153 kts | 39° |
| 2026-05-07 19:57 | 55.54658 | 12.53323 | 1267 ft | 151 kts | 39° |
| 2026-05-07 19:57 | 55.55450 | 12.54541 | 1061 ft | 151 kts | 39° |
| 2026-05-07 19:58 | 55.56240 | 12.55752 | 846 ft | 150 kts | 39° |
| 2026-05-07 19:58 | 55.57031 | 12.56953 | 678 ft | 150 kts | 39° |
| 2026-05-07 19:58 | 55.57812 | 12.58166 | 461 ft | 149 kts | 40° |
| 2026-05-07 19:58 | 55.58583 | 12.59367 | 249 ft | 147 kts | 40° |
| 2026-05-07 19:59 | 55.59347 | 12.60548 | 39 ft | 145 kts | 40° |
| 2026-05-07 19:59 | 55.60037 | 12.61609 | 19 ft | 106 kts | 41° |
| 2026-05-07 19:59 | 55.60457 | 12.62264 | 18 ft | 57 kts | 41° |
| 2026-05-07 19:59 | 55.60680 | 12.62611 | 21 ft | 37 kts | 41° |
| 2026-05-07 20:00 | 55.60877 | 12.62827 | 19 ft | 34 kts | 18° |
| 2026-05-07 20:00 | 55.61086 | 12.62909 | 17 ft | 28 kts | 14° |
| 2026-05-07 20:00 | 55.61238 | 12.63096 | 19 ft | 27 kts | 41° |
| 2026-05-07 20:00 | 55.61377 | 12.63308 | 17 ft | 26 kts | 40° |
| 2026-05-07 20:01 | 55.61513 | 12.63519 | 17 ft | 26 kts | 41° |
| 2026-05-07 20:01 | 55.61651 | 12.63734 | 17 ft | 26 kts | 41° |
| 2026-05-07 20:01 | 55.61789 | 12.63946 | 17 ft | 26 kts | 40° |
| 2026-05-07 20:01 | 55.61938 | 12.64128 | 18 ft | 26 kts | 25° |
| 2026-05-07 20:02 | 55.62102 | 12.64265 | 17 ft | 25 kts | 26° |
| 2026-05-07 20:02 | 55.62229 | 12.64360 | 15 ft | 15 kts | 0° |
| 2026-05-07 20:02 | 55.62303 | 12.64214 | 14 ft | 22 kts | 303° |
| 2026-05-07 20:02 | 55.62397 | 12.63965 | 15 ft | 25 kts | 303° |
| 2026-05-07 20:03 | 55.62506 | 12.63781 | 17 ft | 21 kts | 341° |
| 2026-05-07 20:03 | 55.62637 | 12.63807 | 17 ft | 18 kts | 29° |
| 2026-05-07 20:03 | 55.62725 | 12.63901 | 18 ft | 13 kts | 32° |
| 2026-05-07 20:03 | 55.62797 | 12.63970 | 17 ft | 10 kts | 18° |
| 2026-05-07 20:04 | 55.62854 | 12.63993 | 17 ft | 6 kts | 12° |
| 2026-05-07 20:04 | 55.62868 | 12.63998 | 17 ft | 0 kts | 11° |
| 2026-05-07 20:04 | 55.62869 | 12.63998 | 17 ft | 0 kts | 11° |